Espaço - Ciências - Fenômenos Naturais
Meteógrafos Informações Meteorológicas em tempo real

Aeroporto de Congonhas

Histórico do Tempo
Temperatura atual: 19 graus 66 F    Umidade relativa: 88 %
Velocidade do vento: 03 nós 5 Km/h    Direção: 190 graus S
Ajuste do altímetro ..: 1019 HPA
Visibilidade: Ruim    Tempo presente: Chovendo muito forte

Observação
Poucas nuvens a 400 Pés., Céu nublado a 4900 Pés.

Data Hora BRTTempo°CUmidadePressãoVentoVisib.
20/01 - 03:55   Chovendo fraco 19° 88% 1019 Sudoeste/5 km/h 9999
20/01 - 02:55   Chovendo fraco 19° 88% 1019 /1 km/h OK
20/01 - 01:55   Chovendo fraco 19° 88% 1019 /1 km/h OK
20/01 - 00:55   Chovendo fraco 19° 88% 1020 /3 km/h OK
19/01 - 23:55   Chovendo fraco 20° 82% 1020 /3 km/h OK
19/01 - 22:55   Chovendo fraco 20° 88% 1021 Leste/3 km/h 9000
19/01 - 21:55   Chovendo fraco 20° 88% 1020 Leste/7 km/h OK
19/01 - 20:55   Chovendo fraco 20° 88% 1020 Sul/9 km/h OK
19/01 - 19:55   Chovendo fraco 20° 88% 1020 Sul/9 km/h OK
19/01 - 18:55   Chovendo fraco 20° 88% 1019 Sul-sudeste/14 km/h 7000
19/01 - 17:55   Chovendo fraco 20° 88% 1019 Sul-sudeste/14 km/h 7000
19/01 - 16:55   Chovendo fraco 20° 88% 1019 Sul-sudeste/14 km/h 6000
19/01 - 15:55   Chovendo fraco 20° 88% ND Sudeste/9 km/h 5000
19/01 - 14:55   Chovendo 20° 88% ND Sul/14 km/h 3000
19/01 - 13:55   Muitas Nuvens 25° 65% 1019 Norte-noroeste/9 km/h OK
19/01 - 12:55   Não Disponível 24° 73% 1019 Oeste-noroeste/5 km/h OK
19/01 - 11:55   Não Disponível 24° 73% 1019 Oeste-noroeste/5 km/h OK
19/01 - 10:55   Parcialmente Nublado 22° 83% 1019 Noroeste/10 km/h OK
19/01 - 09:55   Muitas Nuvens 22° 83% 1019 Noroeste/10 km/h OK
19/01 - 08:55   Muitas Nuvens 22° 83% 1019 Noroeste/10 km/h OK
19/01 - 07:55   Céu Encoberto 21° 88% 1018 Noroeste/7 km/h OK
19/01 - 06:55   Céu Encoberto 21° 83% 1017 Noroeste/9 km/h OK
19/01 - 05:55   Chovendo fraco 21° 83% 1016 Noroeste/9 km/h OK
19/01 - 04:55   Parcialmente Nublado 20° 93% 1016 Noroeste/7 km/h OK


Apolo11.com - Todos os direitos reservados - 2000 - 2017
Política de Privacidade   |     Termo de Uso e Licenciamento   |  -   Entre em Contato

"Quando se procura muito o jeito de se fazer temer, sempre se encontra primeiro o de se fazer odiar" - Montesquieu